createdAt,value
2019-02-06T00:00:51.215Z,-5.30
2019-02-06T00:03:22.127Z,-5.30
2019-02-06T00:05:51.545Z,-5.40
2019-02-06T00:08:20.796Z,-5.40
2019-02-06T00:10:50.104Z,-5.50
2019-02-06T00:13:19.189Z,-5.60
2019-02-06T00:15:48.614Z,-5.50
2019-02-06T00:18:17.961Z,-5.60
2019-02-06T00:20:46.958Z,-5.70
2019-02-06T00:23:18.541Z,-5.80
2019-02-06T00:25:47.764Z,-5.80
2019-02-06T00:28:16.749Z,-5.90
2019-02-06T00:30:46.095Z,-6.00
2019-02-06T00:33:15.850Z,-6.00
2019-02-06T00:35:45.278Z,-6.00
2019-02-06T00:38:15.255Z,-6.10
2019-02-06T00:40:44.736Z,-6.00
2019-02-06T00:43:14.159Z,-5.60
2019-02-06T00:45:43.862Z,-5.40
2019-02-06T00:48:12.850Z,-5.40
2019-02-06T00:50:41.826Z,-5.40
2019-02-06T00:53:11.041Z,-5.60
2019-02-06T00:55:40.074Z,-5.80
2019-02-06T00:58:09.422Z,-5.90
2019-02-06T01:00:39.469Z,-6.10
2019-02-06T01:03:09.051Z,-6.20
2019-02-06T01:05:38.964Z,-6.20
2019-02-06T01:08:08.822Z,-6.20
2019-02-06T01:10:38.372Z,-6.20
2019-02-06T01:13:07.915Z,-6.20
2019-02-06T01:15:37.433Z,-6.20
2019-02-06T01:18:06.466Z,-6.10
2019-02-06T01:20:35.795Z,-6.10
2019-02-06T01:23:05.511Z,-6.00
2019-02-06T01:25:34.744Z,-5.90
2019-02-06T01:28:03.783Z,-5.90
2019-02-06T01:30:39.764Z,-6.00
2019-02-06T01:33:09.047Z,-6.00
2019-02-06T01:35:49.211Z,-6.20
2019-02-06T01:38:09.759Z,-6.30
2019-02-06T01:40:39.094Z,-6.30
2019-02-06T01:43:08.163Z,-6.30
2019-02-06T01:45:37.638Z,-6.30
2019-02-06T01:48:06.660Z,-6.10
2019-02-06T01:50:35.996Z,-6.10
2019-02-06T01:53:05.556Z,-6.00
2019-02-06T01:55:34.983Z,-6.10
2019-02-06T01:58:04.407Z,-6.10
2019-02-06T02:00:33.433Z,-6.00
2019-02-06T02:03:02.822Z,-6.10
2019-02-06T02:05:32.213Z,-6.10
2019-02-06T02:08:01.673Z,-6.20
2019-02-06T02:10:33.228Z,-6.20
2019-02-06T02:13:03.001Z,-6.20
2019-02-06T02:15:32.594Z,-6.20
2019-02-06T02:18:02.257Z,-6.20
2019-02-06T02:20:31.784Z,-6.10
2019-02-06T02:23:00.950Z,-6.20
2019-02-06T02:25:30.159Z,-6.20
2019-02-06T02:27:59.166Z,-6.20
2019-02-06T02:30:44.601Z,-6.10
2019-02-06T02:33:13.675Z,-6.20
2019-02-06T02:35:43.059Z,-6.10
2019-02-06T02:38:11.963Z,-6.10
2019-02-06T02:40:41.143Z,-6.10
2019-02-06T02:43:10.816Z,-6.10
2019-02-06T02:45:40.209Z,-6.10
2019-02-06T02:48:09.540Z,-6.20
2019-02-06T02:50:38.956Z,-6.20
2019-02-06T02:53:08.652Z,-6.20
2019-02-06T02:55:38.068Z,-6.20
2019-02-06T02:58:08.604Z,-6.20
2019-02-06T03:01:00.264Z,-6.20
2019-02-06T03:03:48.696Z,-6.30
2019-02-06T03:06:27.746Z,-6.30
2019-02-06T03:08:49.596Z,-6.50
2019-02-06T03:11:19.444Z,-6.50
2019-02-06T03:13:48.904Z,-6.50
2019-02-06T03:16:18.365Z,-6.60
2019-02-06T03:18:48.474Z,-6.60
2019-02-06T03:21:18.146Z,-6.60
2019-02-06T03:23:47.733Z,-6.60
2019-02-06T03:26:17.156Z,-6.70
2019-02-06T03:28:46.930Z,-6.90
2019-02-06T03:31:16.758Z,-6.90
2019-02-06T03:33:46.455Z,-7.00
2019-02-06T03:36:15.943Z,-7.00
2019-02-06T03:38:46.464Z,-7.00
2019-02-06T03:41:16.171Z,-7.10
2019-02-06T03:43:45.513Z,-7.10
2019-02-06T03:46:14.457Z,-7.10
2019-02-06T03:48:43.848Z,-7.10
2019-02-06T03:51:13.203Z,-7.00
2019-02-06T03:53:42.704Z,-6.90
2019-02-06T03:56:11.867Z,-6.80
2019-02-06T03:58:41.138Z,-6.90
2019-02-06T04:01:11.531Z,-6.90
2019-02-06T04:03:41.216Z,-6.90
2019-02-06T04:06:10.266Z,-7.00
2019-02-06T04:08:39.570Z,-7.10
2019-02-06T04:11:08.717Z,-7.20
2019-02-06T04:13:38.028Z,-7.30
2019-02-06T04:16:07.104Z,-7.30
2019-02-06T04:18:36.429Z,-7.40
2019-02-06T04:21:05.820Z,-7.30
2019-02-06T04:23:35.003Z,-7.20
2019-02-06T04:26:04.223Z,-7.20
2019-02-06T04:28:33.279Z,-7.20
2019-02-06T04:31:02.554Z,-7.30
2019-02-06T04:33:32.057Z,-7.30
2019-02-06T04:36:01.045Z,-7.40
2019-02-06T04:38:30.244Z,-7.40
2019-02-06T04:40:59.235Z,-7.40
2019-02-06T04:43:28.179Z,-7.40
2019-02-06T04:45:57.528Z,-7.40
2019-02-06T04:48:26.790Z,-7.40
2019-02-06T04:50:55.964Z,-7.40
2019-02-06T04:53:25.383Z,-7.40
2019-02-06T04:55:54.265Z,-7.30
2019-02-06T04:58:25.639Z,-7.30
2019-02-06T05:00:54.873Z,-7.20
2019-02-06T05:03:25.866Z,-7.20
2019-02-06T05:05:54.950Z,-7.20
2019-02-06T05:08:24.286Z,-7.30
2019-02-06T05:10:53.406Z,-7.40
2019-02-06T05:13:22.708Z,-7.50
2019-02-06T05:15:52.023Z,-7.50
2019-02-06T05:18:21.092Z,-7.50
2019-02-06T05:20:50.567Z,-7.40
2019-02-06T05:23:19.606Z,-7.40
2019-02-06T05:25:48.565Z,-7.40
2019-02-06T05:28:18.368Z,-7.50
2019-02-06T05:30:47.826Z,-7.50
2019-02-06T05:33:17.099Z,-7.50
2019-02-06T05:35:46.562Z,-7.50
2019-02-06T05:38:15.735Z,-7.40
2019-02-06T05:40:45.103Z,-7.50
2019-02-06T05:43:14.112Z,-7.40
2019-02-06T05:45:43.073Z,-7.40
2019-02-06T05:48:12.310Z,-7.40
2019-02-06T05:50:41.607Z,-7.50
2019-02-06T05:53:10.820Z,-7.50
2019-02-06T05:55:40.027Z,-7.50
2019-02-06T05:58:09.436Z,-7.60
2019-02-06T06:00:44.525Z,-7.70
2019-02-06T06:03:13.734Z,-7.70
2019-02-06T06:05:43.290Z,-7.70
2019-02-06T06:08:12.560Z,-7.70
2019-02-06T06:10:41.603Z,-7.70
2019-02-06T06:13:10.669Z,-7.70
2019-02-06T06:15:39.742Z,-7.30
2019-02-06T06:18:08.900Z,-7.00
2019-02-06T06:20:37.932Z,-7.10
2019-02-06T06:23:07.544Z,-7.30
2019-02-06T06:25:36.584Z,-7.40
2019-02-06T06:28:05.849Z,-7.40
2019-02-06T06:30:34.842Z,-7.50
2019-02-06T06:33:03.853Z,-7.50
2019-02-06T06:35:32.931Z,-7.50
2019-02-06T06:38:02.897Z,-7.50
2019-02-06T06:40:32.028Z,-7.50
2019-02-06T06:43:01.109Z,-7.50
2019-02-06T06:45:30.110Z,-7.60
2019-02-06T06:47:59.369Z,-7.60
2019-02-06T06:50:28.472Z,-7.60
2019-02-06T06:52:57.723Z,-7.40
2019-02-06T06:55:27.093Z,-7.40
2019-02-06T06:57:56.201Z,-7.40
2019-02-06T07:00:27.193Z,-7.40
2019-02-06T07:02:56.303Z,-7.30
2019-02-06T07:05:25.389Z,-7.30
2019-02-06T07:07:54.818Z,-7.30
2019-02-06T07:10:24.274Z,-7.30
2019-02-06T07:12:53.399Z,-7.30
2019-02-06T07:15:24.897Z,-7.20
2019-02-06T07:17:53.833Z,-7.10
2019-02-06T07:20:22.864Z,-7.00
2019-02-06T07:22:51.902Z,-6.90
2019-02-06T07:25:21.204Z,-6.80
2019-02-06T07:27:50.347Z,-6.70
2019-02-06T07:30:30.328Z,-6.50
2019-02-06T07:32:59.539Z,-6.30
2019-02-06T07:35:28.974Z,-6.10
2019-02-06T07:37:58.434Z,-5.90
2019-02-06T07:40:27.833Z,-5.60
2019-02-06T07:42:56.948Z,-5.40
2019-02-06T07:45:26.064Z,-5.20
2019-02-06T07:47:55.263Z,-5.10
2019-02-06T07:50:26.584Z,-5.00
2019-02-06T07:52:56.059Z,-4.90
2019-02-06T07:55:25.055Z,-4.80
2019-02-06T07:57:54.109Z,-4.60
2019-02-06T08:00:23.329Z,-4.40
2019-02-06T08:02:53.240Z,-4.20
2019-02-06T08:05:22.394Z,-4.00
2019-02-06T08:07:51.724Z,-3.90
2019-02-06T08:10:23.238Z,-3.60
2019-02-06T08:12:52.381Z,-3.30
2019-02-06T08:15:21.635Z,-3.20
2019-02-06T08:17:50.754Z,-3.00
2019-02-06T08:20:20.286Z,-2.90
2019-02-06T08:22:49.423Z,-2.70
2019-02-06T08:25:18.864Z,-2.60
2019-02-06T08:27:47.886Z,-2.50
2019-02-06T08:30:22.540Z,-2.30
2019-02-06T08:32:51.911Z,-2.10
2019-02-06T08:35:21.128Z,-2.00
2019-02-06T08:37:50.416Z,-2.00
2019-02-06T08:40:19.833Z,-2.10
2019-02-06T08:42:48.898Z,-2.00
2019-02-06T08:45:18.226Z,-1.90
2019-02-06T08:47:47.209Z,-1.80
2019-02-06T08:50:16.490Z,-1.70
2019-02-06T08:52:45.840Z,-1.60
2019-02-06T08:55:17.741Z,-1.50
2019-02-06T08:57:46.866Z,-1.30
2019-02-06T09:00:19.202Z,-1.10
2019-02-06T09:02:48.198Z,-0.80
2019-02-06T09:05:17.316Z,-0.60
2019-02-06T09:07:46.648Z,-0.40
2019-02-06T09:10:17.517Z,-0.10
2019-02-06T09:12:46.702Z,0.00
2019-02-06T09:15:16.040Z,0.20
2019-02-06T09:17:45.090Z,0.50
2019-02-06T09:20:18.530Z,0.50
2019-02-06T09:22:47.586Z,0.60
2019-02-06T09:25:17.998Z,0.60
2019-02-06T09:27:47.092Z,0.60
2019-02-06T09:30:18.599Z,0.70
2019-02-06T09:32:47.646Z,0.90
2019-02-06T09:35:17.135Z,1.20
2019-02-06T09:37:46.897Z,1.50
2019-02-06T09:40:17.732Z,1.60
2019-02-06T09:42:46.840Z,1.60
2019-02-06T09:45:16.237Z,1.70
2019-02-06T09:47:45.409Z,1.80
2019-02-06T09:50:18.021Z,1.90
2019-02-06T09:52:47.163Z,2.00
2019-02-06T09:55:16.394Z,2.00
2019-02-06T09:57:45.498Z,2.10
2019-02-06T10:00:20.185Z,2.30
2019-02-06T10:02:49.257Z,2.40
2019-02-06T10:05:18.664Z,2.60
2019-02-06T10:07:47.897Z,2.80
2019-02-06T10:10:21.398Z,3.20
2019-02-06T10:12:50.707Z,3.30
2019-02-06T10:15:25.030Z,3.40
2019-02-06T10:17:54.747Z,3.40
2019-02-06T10:20:25.749Z,3.30
2019-02-06T10:22:54.827Z,3.20
2019-02-06T10:25:24.050Z,3.40
2019-02-06T10:27:53.117Z,3.40
2019-02-06T10:30:33.283Z,3.50
2019-02-06T10:33:02.825Z,3.70
2019-02-06T10:35:31.880Z,3.80
2019-02-06T10:38:01.137Z,4.00
2019-02-06T10:40:30.544Z,4.10
2019-02-06T10:42:59.720Z,4.20
2019-02-06T10:45:28.737Z,4.30
2019-02-06T10:47:58.136Z,4.30
2019-02-06T10:50:29.452Z,4.60
2019-02-06T10:52:58.825Z,4.80
2019-02-06T10:55:27.838Z,4.80
2019-02-06T10:57:56.795Z,5.00
2019-02-06T11:00:34.246Z,5.10
2019-02-06T11:03:03.291Z,5.00
2019-02-06T11:05:32.880Z,4.80
2019-02-06T11:08:02.460Z,4.80
2019-02-06T11:10:31.480Z,4.90
2019-02-06T11:13:00.516Z,4.90
2019-02-06T11:15:30.224Z,4.90
2019-02-06T11:17:59.521Z,5.00
2019-02-06T11:20:29.384Z,5.00
2019-02-06T11:22:58.456Z,5.00
2019-02-06T11:25:27.400Z,4.80
2019-02-06T11:27:56.516Z,4.90
2019-02-06T11:30:27.109Z,4.90
2019-02-06T11:32:56.449Z,5.00
2019-02-06T11:35:25.672Z,5.10
2019-02-06T11:37:54.907Z,5.00
2019-02-06T11:40:24.977Z,5.00
2019-02-06T11:42:54.761Z,5.20
2019-02-06T11:45:30.146Z,5.30
2019-02-06T11:47:59.950Z,5.20
2019-02-06T11:50:33.088Z,5.20
2019-02-06T11:53:02.280Z,5.30
2019-02-06T11:55:31.415Z,5.30
2019-02-06T11:58:00.416Z,5.50
2019-02-06T12:00:36.645Z,5.50
2019-02-06T12:03:05.742Z,5.70
2019-02-06T12:05:34.830Z,5.70
2019-02-06T12:08:03.947Z,5.80
2019-02-06T12:10:34.871Z,5.80
2019-02-06T12:13:04.892Z,5.80
2019-02-06T12:15:33.890Z,5.90
2019-02-06T12:18:02.843Z,6.00
2019-02-06T12:20:31.763Z,6.00
2019-02-06T12:23:00.788Z,6.00
2019-02-06T12:25:29.915Z,6.00
2019-02-06T12:27:58.952Z,6.10
2019-02-06T12:30:29.979Z,6.00
2019-02-06T12:32:59.090Z,6.00
2019-02-06T12:35:28.229Z,6.00
2019-02-06T12:37:57.975Z,6.00
2019-02-06T12:40:27.856Z,6.10
2019-02-06T12:42:56.956Z,6.20
2019-02-06T12:45:26.436Z,6.20
2019-02-06T12:47:56.403Z,6.30
2019-02-06T12:50:26.906Z,6.30
2019-02-06T12:52:57.501Z,6.40
2019-02-06T12:55:29.952Z,6.30
2019-02-06T12:57:59.011Z,6.10
2019-02-06T13:00:29.832Z,6.10
2019-02-06T13:03:00.150Z,6.00
2019-02-06T13:05:31.406Z,6.00
2019-02-06T13:08:01.309Z,6.00
2019-02-06T13:10:34.549Z,6.00
2019-02-06T13:13:01.332Z,6.00
2019-02-06T13:15:30.428Z,6.00
2019-02-06T13:17:59.439Z,6.20
2019-02-06T13:20:29.672Z,6.30
2019-02-06T13:22:58.776Z,6.40
2019-02-06T13:25:28.073Z,6.60
2019-02-06T13:27:57.120Z,6.80
2019-02-06T13:30:36.336Z,6.80
2019-02-06T13:33:06.266Z,6.70
2019-02-06T13:35:35.367Z,6.80
2019-02-06T13:38:05.168Z,6.90
2019-02-06T13:40:45.073Z,6.90
2019-02-06T13:43:05.653Z,6.90
2019-02-06T13:45:37.431Z,6.90
2019-02-06T13:48:06.837Z,6.90
2019-02-06T13:50:36.100Z,6.90
2019-02-06T13:53:05.671Z,7.00
2019-02-06T13:55:34.630Z,7.00
2019-02-06T13:58:03.984Z,7.10
2019-02-06T14:00:34.219Z,7.00
2019-02-06T14:03:03.418Z,7.10
2019-02-06T14:05:33.342Z,7.20
2019-02-06T14:08:07.526Z,7.20
2019-02-06T14:10:36.968Z,7.30
2019-02-06T14:13:06.274Z,7.40
2019-02-06T14:15:38.389Z,7.30
2019-02-06T14:18:08.190Z,7.20
2019-02-06T14:20:38.761Z,7.10
2019-02-06T14:23:49.327Z,7.20
2019-02-06T14:26:26.711Z,7.20
2019-02-06T14:29:31.591Z,7.20
2019-02-06T14:32:31.720Z,7.10
2019-02-06T14:35:38.830Z,7.10
2019-02-06T14:38:38.658Z,7.10
2019-02-06T14:41:37.289Z,7.10
2019-02-06T14:44:40.078Z,7.10
2019-02-06T14:47:20.444Z,7.10
2019-02-06T14:50:36.842Z,7.00
2019-02-06T14:53:49.904Z,7.00
2019-02-06T14:56:57.546Z,6.80
2019-02-06T14:59:58.028Z,6.70
2019-02-06T15:03:04.299Z,6.60
2019-02-06T15:06:22.830Z,6.50
2019-02-06T15:09:29.054Z,6.30
2019-02-06T15:12:38.731Z,6.30
2019-02-06T15:15:38.674Z,6.10
2019-02-06T15:18:43.143Z,6.10
2019-02-06T15:21:59.539Z,5.90
2019-02-06T15:24:57.478Z,5.80
2019-02-06T15:28:03.097Z,5.50
2019-02-06T15:30:57.899Z,5.30
2019-02-06T15:34:15.510Z,5.10
2019-02-06T15:37:16.143Z,5.00
2019-02-06T15:40:26.637Z,4.70
2019-02-06T15:43:34.196Z,4.60
2019-02-06T15:46:41.237Z,4.40
2019-02-06T15:49:37.033Z,4.20
2019-02-06T15:52:29.386Z,4.10
2019-02-06T15:55:36.949Z,3.90
2019-02-06T15:58:47.271Z,3.80
2019-02-06T16:01:33.886Z,3.70
2019-02-06T16:05:03.520Z,3.50
2019-02-06T16:08:29.270Z,3.30
2019-02-06T16:11:42.791Z,3.10
2019-02-06T16:14:40.964Z,2.90
2019-02-06T16:18:05.047Z,2.80
2019-02-06T16:21:02.493Z,2.60
2019-02-06T16:24:01.141Z,2.40
2019-02-06T16:27:10.952Z,2.20
2019-02-06T16:30:29.334Z,2.00
2019-02-06T16:33:11.500Z,1.90
2019-02-06T16:36:13.947Z,1.80
2019-02-06T16:39:27.412Z,1.70
2019-02-06T16:42:24.615Z,1.50
2019-02-06T16:45:18.909Z,1.20
2019-02-06T16:48:31.852Z,1.00
2019-02-06T16:51:37.494Z,0.90
2019-02-06T16:54:32.611Z,0.80
2019-02-06T16:57:58.267Z,0.70
2019-02-06T17:00:55.873Z,0.60
2019-02-06T17:04:11.967Z,0.40
2019-02-06T17:07:10.615Z,0.40
2019-02-06T17:09:58.770Z,0.40
2019-02-06T17:13:03.389Z,0.40
2019-02-06T17:15:54.734Z,0.40
2019-02-06T17:19:07.660Z,0.20
2019-02-06T17:22:05.521Z,0.10
2019-02-06T17:25:14.767Z,-0.10
2019-02-06T17:28:19.186Z,-0.10
2019-02-06T17:31:25.354Z,0.00
2019-02-06T17:34:36.584Z,-0.10
2019-02-06T17:37:48.156Z,-0.10
2019-02-06T17:40:44.805Z,-0.20
2019-02-06T17:43:41.828Z,-0.30
2019-02-06T17:46:31.029Z,-0.50
2019-02-06T17:49:37.815Z,-0.60
2019-02-06T17:52:27.819Z,-0.80
2019-02-06T17:55:16.013Z,-0.90
2019-02-06T17:57:45.986Z,-1.00
2019-02-06T18:00:28.537Z,-1.20
2019-02-06T18:02:58.367Z,-1.30
2019-02-06T18:05:27.671Z,-1.30
2019-02-06T18:07:56.706Z,-1.30
2019-02-06T18:10:25.977Z,-1.40
2019-02-06T18:12:55.207Z,-1.40
2019-02-06T18:15:24.376Z,-1.40
2019-02-06T18:17:54.679Z,-1.40
2019-02-06T18:20:24.173Z,-1.50
2019-02-06T18:22:55.832Z,-1.50
2019-02-06T18:25:24.919Z,-1.50
2019-02-06T18:27:54.038Z,-1.50
2019-02-06T18:30:23.498Z,-1.50
2019-02-06T18:32:54.272Z,-1.50
2019-02-06T18:35:23.588Z,-1.40
2019-02-06T18:37:53.165Z,-1.30
2019-02-06T18:40:24.355Z,-1.50
2019-02-06T18:42:53.992Z,-1.60
2019-02-06T18:45:23.759Z,-1.70
2019-02-06T18:47:58.875Z,-1.80
2019-02-06T18:50:31.043Z,-1.90
2019-02-06T18:53:01.030Z,-2.00
2019-02-06T18:55:30.505Z,-2.00
2019-02-06T18:58:00.282Z,-2.00
2019-02-06T19:00:32.269Z,-2.00
2019-02-06T19:03:03.059Z,-2.10
2019-02-06T19:05:34.556Z,-2.10
2019-02-06T19:08:03.785Z,-2.10
2019-02-06T19:10:32.874Z,-2.10
2019-02-06T19:13:02.311Z,-2.20
2019-02-06T19:15:32.028Z,-2.20
2019-02-06T19:18:01.475Z,-2.20
2019-02-06T19:20:30.691Z,-2.30
2019-02-06T19:23:00.164Z,-2.20
2019-02-06T19:25:29.682Z,-2.20
2019-02-06T19:27:59.172Z,-2.20
2019-02-06T19:30:31.084Z,-2.30
2019-02-06T19:33:00.189Z,-2.40
2019-02-06T19:35:29.516Z,-2.40
2019-02-06T19:37:58.660Z,-2.40
2019-02-06T19:40:28.007Z,-2.30
2019-02-06T19:43:02.014Z,-2.30
2019-02-06T19:45:28.538Z,-2.10
2019-02-06T19:47:58.613Z,-1.90
2019-02-06T19:50:30.313Z,-2.00
2019-02-06T19:52:59.593Z,-2.10
2019-02-06T19:55:28.702Z,-2.30
2019-02-06T19:57:57.994Z,-2.40
2019-02-06T20:00:28.547Z,-2.50
2019-02-06T20:02:58.086Z,-2.60
2019-02-06T20:05:27.690Z,-2.60
2019-02-06T20:07:57.350Z,-2.60
2019-02-06T20:10:34.613Z,-2.70
2019-02-06T20:13:11.393Z,-2.70
2019-02-06T20:15:35.402Z,-2.80
2019-02-06T20:18:05.441Z,-2.90
2019-02-06T20:20:35.357Z,-3.00
2019-02-06T20:23:04.946Z,-3.10
2019-02-06T20:25:34.220Z,-3.10
2019-02-06T20:28:03.700Z,-3.10
2019-02-06T20:30:33.451Z,-3.10
2019-02-06T20:33:02.949Z,-2.80
2019-02-06T20:35:32.353Z,-2.70
2019-02-06T20:38:01.737Z,-2.70
2019-02-06T20:40:33.064Z,-2.80
2019-02-06T20:43:02.910Z,-2.90
2019-02-06T20:45:32.351Z,-3.00
2019-02-06T20:48:02.146Z,-3.10
2019-02-06T20:50:32.871Z,-3.10
2019-02-06T20:53:02.644Z,-3.20
2019-02-06T20:55:32.090Z,-3.20
2019-02-06T20:58:01.592Z,-3.20
2019-02-06T21:00:37.582Z,-3.20
2019-02-06T21:03:07.486Z,-3.20
2019-02-06T21:05:37.060Z,-3.30
2019-02-06T21:08:06.530Z,-3.30
2019-02-06T21:10:35.954Z,-3.40
2019-02-06T21:13:05.540Z,-3.40
2019-02-06T21:15:34.959Z,-3.50
2019-02-06T21:18:04.430Z,-3.40
2019-02-06T21:20:33.479Z,-3.40
2019-02-06T21:23:02.908Z,-3.40
2019-02-06T21:25:31.963Z,-3.40
2019-02-06T21:28:01.271Z,-3.30
2019-02-06T21:30:32.238Z,-3.40
2019-02-06T21:33:01.773Z,-3.40
2019-02-06T21:35:31.295Z,-3.50
2019-02-06T21:38:01.018Z,-3.50
2019-02-06T21:40:32.390Z,-3.60
2019-02-06T21:43:01.885Z,-3.70
2019-02-06T21:45:31.367Z,-3.80
2019-02-06T21:48:00.463Z,-3.80
2019-02-06T21:50:29.708Z,-3.80
2019-02-06T21:52:59.320Z,-3.80
2019-02-06T21:55:28.779Z,-3.80
2019-02-06T21:57:58.308Z,-3.80
2019-02-06T22:00:33.248Z,-3.70
2019-02-06T22:03:02.734Z,-3.50
2019-02-06T22:05:32.428Z,-3.30
2019-02-06T22:08:02.047Z,-3.20
2019-02-06T22:10:31.726Z,-3.20
2019-02-06T22:13:01.235Z,-3.40
2019-02-06T22:15:31.049Z,-3.50
2019-02-06T22:18:00.978Z,-3.70
2019-02-06T22:20:30.827Z,-3.80
2019-02-06T22:23:00.380Z,-3.80
2019-02-06T22:25:29.857Z,-3.90
2019-02-06T22:27:59.325Z,-3.90
2019-02-06T22:30:29.116Z,-3.90
2019-02-06T22:32:58.454Z,-3.80
2019-02-06T22:35:30.072Z,-3.70
2019-02-06T22:37:59.104Z,-3.60
2019-02-06T22:40:28.460Z,-3.40
2019-02-06T22:42:57.844Z,-3.40
2019-02-06T22:45:27.540Z,-3.40
2019-02-06T22:47:56.923Z,-3.50
2019-02-06T22:50:27.571Z,-3.50
2019-02-06T22:52:56.970Z,-3.60
2019-02-06T22:55:26.326Z,-3.60
2019-02-06T22:57:55.343Z,-3.60
2019-02-06T23:01:10.699Z,-3.60
2019-02-06T23:03:42.556Z,-3.60
2019-02-06T23:06:12.882Z,-3.60
2019-02-06T23:08:42.560Z,-3.60
2019-02-06T23:11:11.833Z,-3.70
2019-02-06T23:13:40.933Z,-3.70
2019-02-06T23:16:10.384Z,-3.70
2019-02-06T23:18:39.278Z,-3.70
2019-02-06T23:21:08.480Z,-3.40
2019-02-06T23:23:37.825Z,-3.20
2019-02-06T23:26:07.339Z,-2.90
2019-02-06T23:28:36.382Z,-2.60
2019-02-06T23:31:05.679Z,-2.50
2019-02-06T23:33:34.736Z,-2.70
2019-02-06T23:36:04.845Z,-2.90
2019-02-06T23:38:34.446Z,-3.10
2019-02-06T23:41:03.616Z,-3.30
2019-02-06T23:43:32.825Z,-3.60
2019-02-06T23:46:02.212Z,-3.80
2019-02-06T23:48:31.286Z,-4.00
2019-02-06T23:51:00.658Z,-4.10
2019-02-06T23:53:30.106Z,-4.20
2019-02-06T23:55:59.777Z,-4.10
2019-02-06T23:58:28.859Z,-4.20
